Time;durP1;ratioP1;P1;durP2;ratioP2;P2;SDS_P1;SDS_P2;PMS_P1;PMS_P2;Temp;Humidity;BMP_temperature;BMP_pressure;BME280_temperature;BME280_humidity;BME280_pressure;Samples;Min_cycle;Max_cycle;Signal;HPM_P1;HPM_P2
2023/01/30 00:02:22;;;;;;;10.60;5.50;;;;;;;-3.87;100.00;98769.35;107594;1275;22707;-76
2023/01/30 00:04:52;;;;;;;10.30;5.30;;;;;;;-3.84;100.00;98764.59;106909;1275;1002651;-76
2023/01/30 00:07:33;;;;;;;10.10;5.70;;;;;;;-3.82;100.00;98761.48;106716;1275;1003469;-77
2023/01/30 00:10:12;;;;;;;13.90;6.00;;;;;;;-3.82;100.00;98757.56;107416;1275;22885;-79
2023/01/30 00:12:43;;;;;;;11.70;5.50;;;;;;;-3.82;100.00;98758.64;107450;1275;25310;-78
2023/01/30 00:15:12;;;;;;;14.80;6.40;;;;;;;-3.83;100.00;98765.19;106779;1275;1002794;-76
2023/01/30 00:17:48;;;;;;;16.30;7.50;;;;;;;-3.84;100.00;98762.45;106903;1275;1004063;-77
2023/01/30 00:20:20;;;;;;;18.60;7.40;;;;;;;-3.84;100.00;98765.15;106908;1275;1015135;-76
2023/01/30 00:22:50;;;;;;;14.10;5.90;;;;;;;-3.86;100.00;98760.33;106923;1275;1003371;-77
2023/01/30 00:25:30;;;;;;;19.90;7.60;;;;;;;-3.87;100.00;98759.48;106997;1275;1003265;-77
2023/01/30 00:28:02;;;;;;;14.90;6.20;;;;;;;-3.87;100.00;98754.05;107701;1275;22530;-77
2023/01/30 00:30:31;;;;;;;16.60;7.20;;;;;;;-3.87;100.00;98754.39;106932;1275;1003694;-76
2023/01/30 00:33:01;;;;;;;16.10;6.20;;;;;;;-3.87;100.00;98761.77;107533;1275;26960;-76
2023/01/30 00:35:30;;;;;;;27.90;10.20;;;;;;;-3.86;100.00;98764.95;107683;1275;22538;-77
2023/01/30 00:37:58;;;;;;;27.70;10.60;;;;;;;-3.88;100.00;98762.23;106941;1275;1003515;-77
2023/01/30 00:40:28;;;;;;;28.20;9.40;;;;;;;-3.89;100.00;98763.37;107709;1260;26496;-76
2023/01/30 00:48:34;;;;;;;25.10;8.80;;;;;;;-3.90;100.00;98766.80;107052;1275;1002950;-77
2023/01/30 00:51:03;;;;;;;31.50;10.70;;;;;;;-3.88;100.00;98764.55;106963;1275;1003118;-77
2023/01/30 00:53:34;;;;;;;26.20;9.30;;;;;;;-3.87;100.00;98760.77;107719;1275;26752;-77
2023/01/30 00:56:04;;;;;;;19.90;8.00;;;;;;;-3.86;100.00;98760.17;106911;1275;1002463;-77
2023/01/30 00:58:34;;;;;;;15.00;6.90;;;;;;;-3.84;100.00;98754.55;107808;1275;25346;-78
2023/01/30 01:01:06;;;;;;;15.30;6.30;;;;;;;-3.84;100.00;98749.98;107627;1275;22706;-75
2023/01/30 01:03:38;;;;;;;13.30;6.20;;;;;;;-3.85;100.00;98747.39;107675;1275;23758;-77
2023/01/30 01:06:10;;;;;;;13.50;5.50;;;;;;;-3.87;100.00;98748.22;107835;1275;22548;-76
2023/01/30 01:08:43;;;;;;;12.60;5.30;;;;;;;-3.87;100.00;98747.38;107770;1275;25381;-76
2023/01/30 01:11:23;;;;;;;13.10;6.00;;;;;;;-3.88;100.00;98749.38;107737;1275;25461;-77
2023/01/30 01:13:58;;;;;;;9.90;5.20;;;;;;;-3.89;100.00;98749.67;107631;1255;22537;-76
2023/01/30 01:16:32;;;;;;;12.60;5.30;;;;;;;-3.90;100.00;98749.69;107623;1275;25291;-76
2023/01/30 01:19:01;;;;;;;11.20;5.20;;;;;;;-3.91;100.00;98747.68;107691;1275;23825;-77
2023/01/30 01:21:33;;;;;;;15.10;5.90;;;;;;;-3.93;100.00;98745.38;107819;1275;22875;-77
2023/01/30 01:24:09;;;;;;;14.00;5.50;;;;;;;-3.96;100.00;98748.93;107023;1275;1003186;-78
2023/01/30 01:26:40;;;;;;;15.80;6.40;;;;;;;-3.97;100.00;98751.85;107038;1275;1002812;-77
2023/01/30 01:29:20;;;;;;;12.00;5.60;;;;;;;-3.98;100.00;98745.20;107671;1275;23889;-76
2023/01/30 01:31:51;;;;;;;14.20;6.20;;;;;;;-3.97;100.00;98746.33;106998;1275;1003191;-77
2023/01/30 01:34:26;;;;;;;12.50;5.70;;;;;;;-3.95;100.00;98743.54;107607;1275;25303;-77
2023/01/30 01:36:58;;;;;;;12.70;5.60;;;;;;;-3.92;100.00;98747.55;107596;1275;25252;-77
2023/01/30 01:41:00;;;;;;;9.30;4.70;;;;;;;-3.90;100.00;98747.98;107747;1275;26741;-77
2023/01/30 01:42:16;;;;;;;12.80;5.80;;;;;;;-3.90;100.00;98745.81;107789;1275;22531;-76
2023/01/30 01:45:21;;;;;;;11.30;5.90;;;;;;;-3.90;100.00;98742.96;107775;1254;22580;-77
2023/01/30 01:48:01;;;;;;;11.40;5.10;;;;;;;-3.89;100.00;98743.16;106930;1275;1003743;-77
2023/01/30 01:50:40;;;;;;;11.90;5.80;;;;;;;-3.90;100.00;98742.34;107627;1275;25444;-76
2023/01/30 01:53:10;;;;;;;14.50;6.00;;;;;;;-3.91;100.00;98742.77;107747;1275;25876;-77
2023/01/30 01:55:40;;;;;;;13.60;5.60;;;;;;;-3.92;100.00;98745.09;107704;1275;22561;-75
2023/01/30 01:58:18;;;;;;;14.30;5.80;;;;;;;-3.93;100.00;98743.08;107535;1275;25438;-77
2023/01/30 02:00:48;;;;;;;13.70;6.00;;;;;;;-3.93;100.00;98741.32;106940;1274;1003431;-77
2023/01/30 02:03:22;;;;;;;13.20;6.00;;;;;;;-3.94;100.00;98741.02;106933;1275;1002922;-77
2023/01/30 02:05:53;;;;;;;14.30;6.60;;;;;;;-3.95;100.00;98738.95;106882;1275;1002980;-78
2023/01/30 02:08:53;;;;;;;20.50;6.60;;;;;;;-3.95;100.00;98741.59;106927;1275;1003739;-77
2023/01/30 02:11:24;;;;;;;18.60;7.50;;;;;;;-3.98;100.00;98744.31;107687;1275;23786;-76
2023/01/30 02:13:53;;;;;;;14.40;6.10;;;;;;;-3.97;100.00;98741.63;107773;1275;24206;-76
2023/01/30 02:16:23;;;;;;;13.20;5.50;;;;;;;-3.95;100.00;98735.46;107660;1275;22488;-76
2023/01/30 02:18:53;;;;;;;9.90;5.10;;;;;;;-3.93;100.00;98731.27;107708;1275;25252;-77
2023/01/30 02:21:22;;;;;;;10.00;5.50;;;;;;;-3.92;100.00;98731.20;107755;1275;22637;-76
2023/01/30 02:24:19;;;;;;;13.30;5.70;;;;;;;-3.92;100.00;98727.69;107802;1275;22539;-76
2023/01/30 02:26:59;;;;;;;12.10;5.40;;;;;;;-3.92;100.00;98723.42;106978;1275;1003071;-76
2023/01/30 02:29:45;;;;;;;16.00;5.80;;;;;;;-3.91;100.00;98719.66;106978;1275;1002827;-77
2023/01/30 02:32:42;;;;;;;11.40;5.40;;;;;;;-3.90;100.00;98718.02;107084;1275;1003182;-77
2023/01/30 02:35:37;;;;;;;11.90;5.40;;;;;;;-3.90;100.00;98708.17;107020;1275;1002894;-75
2023/01/30 02:38:24;;;;;;;12.20;5.70;;;;;;;-3.90;100.00;98705.55;107698;1275;22760;-77
2023/01/30 02:41:08;;;;;;;10.70;5.40;;;;;;;-3.91;100.00;98707.02;106910;1275;1003044;-77
2023/01/30 02:43:52;;;;;;;12.60;5.40;;;;;;;-3.92;100.00;98705.14;107661;1275;22791;-77
2023/01/30 02:46:44;;;;;;;13.70;6.00;;;;;;;-3.93;100.00;98708.02;107116;1275;1003005;-77
2023/01/30 02:50:12;;;;;;;8.70;4.80;;;;;;;-3.93;100.00;98713.35;106902;1274;1003613;-77
2023/01/30 02:52:57;;;;;;;13.60;5.50;;;;;;;-3.92;100.00;98708.98;107048;1275;1002532;-76
2023/01/30 02:55:27;;;;;;;18.50;6.50;;;;;;;-3.90;100.00;98707.95;107744;1275;24312;-78
2023/01/30 02:57:58;;;;;;;25.30;10.80;;;;;;;-3.87;100.00;98707.21;107730;1275;25979;-76
2023/01/30 03:00:46;;;;;;;46.70;18.60;;;;;;;-3.84;100.00;98704.20;107767;1275;25418;-77
2023/01/30 03:03:47;;;;;;;35.70;14.80;;;;;;;-3.82;100.00;98701.42;107668;1275;22559;-77
2023/01/30 03:06:35;;;;;;;22.60;9.40;;;;;;;-3.80;100.00;98700.25;107036;1275;1004232;-76
2023/01/30 03:09:14;;;;;;;37.10;13.80;;;;;;;-3.79;100.00;98698.23;106928;1275;1002621;-78
2023/01/30 03:12:06;;;;;;;43.60;15.20;;;;;;;-3.80;100.00;98695.65;107709;1275;23420;-78
2023/01/30 03:14:45;;;;;;;40.10;15.60;;;;;;;-3.82;100.00;98693.49;106858;1275;1003806;-78
2023/01/30 03:17:16;;;;;;;31.20;12.80;;;;;;;-3.82;100.00;98697.89;106943;1275;1003734;-76
2023/01/30 03:19:49;;;;;;;15.30;6.90;;;;;;;-3.85;100.00;98699.13;106845;1275;1002737;-76
2023/01/30 03:22:21;;;;;;;15.40;7.20;;;;;;;-3.88;100.00;98706.08;107041;1275;1002936;-77
2023/01/30 03:24:53;;;;;;;18.10;8.20;;;;;;;-3.94;100.00;98710.94;107687;1275;22524;-77
2023/01/30 03:27:24;;;;;;;19.20;7.60;;;;;;;-4.02;100.00;98724.48;107638;1275;27189;-77
2023/01/30 03:29:53;;;;;;;21.60;9.00;;;;;;;-4.09;100.00;98736.77;106856;1275;1003695;-77
2023/01/30 03:32:23;;;;;;;21.80;9.10;;;;;;;-4.15;100.00;98745.85;107594;1275;25917;-76
2023/01/30 03:34:52;;;;;;;20.20;9.10;;;;;;;-4.21;100.00;98749.25;107806;1275;25432;-77
2023/01/30 03:37:24;;;;;;;26.60;13.50;;;;;;;-4.24;100.00;98751.27;107705;1275;25367;-78
2023/01/30 03:39:53;;;;;;;22.60;11.40;;;;;;;-4.29;100.00;98754.98;107792;1275;22536;-77
2023/01/30 03:42:22;;;;;;;20.70;9.40;;;;;;;-4.34;100.00;98761.50;107833;1275;24401;-76
2023/01/30 03:44:52;;;;;;;25.50;12.50;;;;;;;-4.40;100.00;98767.68;107020;1275;1003175;-77
2023/01/30 03:47:24;;;;;;;21.70;10.10;;;;;;;-4.48;100.00;98769.50;107010;1275;1002867;-77
2023/01/30 03:49:55;;;;;;;18.60;8.90;;;;;;;-4.60;100.00;98776.64;107826;1275;25358;-78
2023/01/30 03:52:27;;;;;;;21.30;9.20;;;;;;;-4.69;100.00;98784.30;107719;1275;25441;-77
2023/01/30 03:54:59;;;;;;;19.50;8.70;;;;;;;-4.79;100.00;98794.14;106936;1275;1003637;-77
2023/01/30 03:57:29;;;;;;;23.10;11.10;;;;;;;-4.91;100.00;98803.88;106995;1275;1002858;-78
2023/01/30 03:59:59;;;;;;;24.00;11.30;;;;;;;-5.02;100.00;98815.02;106923;1275;1003163;-77
2023/01/30 04:02:31;;;;;;;26.10;12.50;;;;;;;-5.13;100.00;98820.27;107801;1275;22526;-76
2023/01/30 04:05:00;;;;;;;20.00;9.40;;;;;;;-5.23;100.00;98834.48;107743;1275;25953;-76
2023/01/30 04:07:30;;;;;;;22.20;9.10;;;;;;;-5.34;100.00;98838.35;107707;1275;24064;-77
2023/01/30 04:09:59;;;;;;;23.50;9.40;;;;;;;-5.43;100.00;98839.84;107815;1275;22527;-77
2023/01/30 04:12:29;;;;;;;22.30;9.10;;;;;;;-5.50;100.00;98839.42;106924;1275;1003097;-76
2023/01/30 04:14:59;;;;;;;25.40;10.20;;;;;;;-5.56;100.00;98841.50;107709;1275;25483;-76
2023/01/30 04:17:47;;;;;;;22.50;9.70;;;;;;;-5.62;100.00;98844.23;107745;1275;25437;-76
2023/01/30 04:20:35;;;;;;;29.10;12.60;;;;;;;-5.69;100.00;98841.51;107736;1275;26876;-76
2023/01/30 04:23:05;;;;;;;29.00;13.00;;;;;;;-5.77;100.00;98842.68;107711;1275;25984;-76
2023/01/30 04:25:35;;;;;;;22.50;11.00;;;;;;;-5.84;100.00;98843.70;107761;1275;23812;-76
2023/01/30 04:28:08;;;;;;;24.30;11.20;;;;;;;-5.95;100.00;98844.70;107227;1274;1002510;-76
2023/01/30 04:30:39;;;;;;;24.10;9.90;;;;;;;-6.03;100.00;98847.87;107683;1275;22610;-77
2023/01/30 04:33:34;;;;;;;22.40;10.80;;;;;;;-6.11;100.00;98850.61;106976;1275;1003059;-76
2023/01/30 04:36:07;;;;;;;21.90;9.90;;;;;;;-6.17;100.00;98846.99;107722;1275;23146;-76
2023/01/30 04:38:40;;;;;;;26.50;11.40;;;;;;;-6.24;100.00;98842.86;107686;1275;22997;-77
2023/01/30 04:41:09;;;;;;;30.20;13.70;;;;;;;-6.31;100.00;98845.16;107667;1275;24186;-76
2023/01/30 04:43:43;;;;;;;32.70;16.10;;;;;;;-6.37;100.00;98850.98;107768;1275;22736;-77
2023/01/30 04:46:20;;;;;;;25.50;11.40;;;;;;;-6.42;100.00;98851.64;107029;1275;1003096;-78
2023/01/30 04:48:52;;;;;;;29.50;12.80;;;;;;;-6.44;100.00;98848.13;107884;1275;22527;-77
2023/01/30 04:51:23;;;;;;;41.70;17.60;;;;;;;-6.49;100.00;98845.40;107018;1275;1003247;-76
2023/01/30 04:53:53;;;;;;;41.20;20.90;;;;;;;-6.51;100.00;98840.27;107763;1275;22796;-76
2023/01/30 04:56:24;;;;;;;67.80;26.90;;;;;;;-6.53;100.00;98833.52;106897;1275;1003172;-76
2023/01/30 04:58:55;;;;;;;83.40;32.20;;;;;;;-6.53;100.00;98826.00;107641;1275;22529;-77
2023/01/30 05:01:31;;;;;;;94.90;37.20;;;;;;;-6.53;100.00;98818.28;106774;1275;1003357;-76
2023/01/30 05:04:00;;;;;;;98.40;38.00;;;;;;;-6.53;100.00;98807.92;107575;1275;24219;-75
2023/01/30 05:06:30;;;;;;;72.00;31.40;;;;;;;-6.54;100.00;98799.56;107559;1275;22840;-77
2023/01/30 05:08:59;;;;;;;81.60;37.00;;;;;;;-6.54;100.00;98795.41;106853;1275;1002424;-77
2023/01/30 05:11:29;;;;;;;47.70;23.50;;;;;;;-6.55;100.00;98790.40;107508;1275;25430;-76
2023/01/30 05:13:58;;;;;;;29.00;15.00;;;;;;;-6.55;100.00;98790.02;107445;1263;23858;-76
2023/01/30 05:16:30;;;;;;;26.00;11.30;;;;;;;-6.56;100.00;98784.98;107529;1275;26118;-75
2023/01/30 05:18:59;;;;;;;31.90;13.90;;;;;;;-6.57;100.00;98780.67;106717;1275;1003585;-76
2023/01/30 05:21:28;;;;;;;35.80;15.80;;;;;;;-6.60;100.00;98776.48;106821;1275;1003013;-76
2023/01/30 05:23:57;;;;;;;28.70;13.80;;;;;;;-6.66;100.00;98777.17;106708;1275;1002885;-77
2023/01/30 05:26:26;;;;;;;30.20;13.10;;;;;;;-6.72;100.00;98780.72;106736;1275;1003749;-76
2023/01/30 05:28:56;;;;;;;23.30;11.30;;;;;;;-6.78;100.00;98784.42;106586;1275;1003000;-76
2023/01/30 05:31:25;;;;;;;28.90;11.50;;;;;;;-6.84;100.00;98786.36;107530;1275;24176;-76
2023/01/30 05:33:54;;;;;;;24.00;12.40;;;;;;;-6.90;100.00;98796.68;107588;1275;25563;-77
2023/01/30 05:36:23;;;;;;;26.90;13.30;;;;;;;-6.94;100.00;98800.05;107505;1275;26776;-76
2023/01/30 05:38:52;;;;;;;33.90;16.20;;;;;;;-6.96;100.00;98804.59;106847;1275;1003798;-77
2023/01/30 05:41:21;;;;;;;25.50;12.10;;;;;;;-6.98;100.00;98803.30;107705;1275;22554;-77
2023/01/30 05:43:50;;;;;;;22.80;10.30;;;;;;;-6.99;100.00;98801.95;106629;1275;1003027;-77
2023/01/30 05:46:19;;;;;;;22.20;8.80;;;;;;;-6.99;100.00;98796.17;107783;1275;25447;-77
2023/01/30 05:48:48;;;;;;;22.70;10.50;;;;;;;-6.98;100.00;98788.21;107185;1275;1002957;-78
2023/01/30 05:51:19;;;;;;;21.20;10.40;;;;;;;-6.93;100.00;98782.83;107500;1275;24038;-78
2023/01/30 05:53:51;;;;;;;23.80;11.50;;;;;;;-6.72;100.00;98746.71;107486;1275;26616;-75
2023/01/30 05:56:22;;;;;;;30.10;13.50;;;;;;;-6.44;100.00;98706.95;106834;1275;1003537;-77
2023/01/30 05:58:52;;;;;;;32.40;14.70;;;;;;;-6.18;100.00;98672.11;106753;1275;1002938;-76
2023/01/30 06:01:25;;;;;;;31.60;13.80;;;;;;;-5.93;100.00;98641.70;107571;1275;25933;-77
2023/01/30 06:03:55;;;;;;;35.80;15.30;;;;;;;-5.71;100.00;98608.82;106885;1275;1014797;-76
2023/01/30 06:06:24;;;;;;;34.00;14.10;;;;;;;-5.53;100.00;98585.29;107425;1275;22555;-75
2023/01/30 06:08:54;;;;;;;29.70;12.70;;;;;;;-5.44;100.00;98575.56;106491;1275;1003290;-74
2023/01/30 06:11:23;;;;;;;30.00;13.10;;;;;;;-5.41;100.00;98577.44;106712;1275;1003097;-77
2023/01/30 06:13:52;;;;;;;24.10;12.40;;;;;;;-5.40;100.00;98577.55;107777;1275;25240;-78
2023/01/30 06:16:21;;;;;;;27.30;14.10;;;;;;;-5.38;100.00;98577.95;107594;1272;22746;-78
2023/01/30 06:18:50;;;;;;;50.80;23.90;;;;;;;-5.39;100.00;98579.27;107628;1275;25447;-78
2023/01/30 06:21:21;;;;;;;61.00;30.30;;;;;;;-5.41;100.00;98578.86;107768;1275;22466;-78
2023/01/30 06:23:51;;;;;;;53.50;26.80;;;;;;;-5.41;100.00;98578.37;106735;1275;1002936;-78
2023/01/30 06:26:21;;;;;;;50.60;24.40;;;;;;;-5.41;100.00;98584.53;106949;1275;1002523;-80
2023/01/30 06:28:50;;;;;;;45.10;20.50;;;;;;;-5.40;100.00;98592.48;106285;1275;1003611;-75
2023/01/30 06:31:19;;;;;;;31.10;15.50;;;;;;;-5.38;100.00;98588.31;106204;1275;1003599;-74
2023/01/30 06:33:48;;;;;;;33.10;17.50;;;;;;;-5.36;100.00;98590.27;106473;1269;1002969;-77
2023/01/30 06:36:18;;;;;;;32.10;16.00;;;;;;;-5.34;100.00;98588.40;106241;1275;1002930;-74
2023/01/30 06:38:47;;;;;;;30.20;14.30;;;;;;;-5.31;100.00;98590.63;106308;1275;1016280;-72
2023/01/30 06:41:17;;;;;;;31.80;13.40;;;;;;;-5.25;100.00;98588.69;107046;1275;23219;-75
2023/01/30 06:43:46;;;;;;;31.40;13.90;;;;;;;-5.19;100.00;98585.10;107090;1275;25426;-75
2023/01/30 06:46:15;;;;;;;29.10;12.90;;;;;;;-5.11;100.00;98583.98;106351;1275;1002815;-73
2023/01/30 06:48:44;;;;;;;31.60;14.60;;;;;;;-5.02;100.00;98578.13;107272;1275;25313;-73
2023/01/30 06:51:13;;;;;;;76.70;30.00;;;;;;;-4.93;100.00;98573.79;106942;1275;1003202;-76
2023/01/30 06:53:43;;;;;;;55.00;25.10;;;;;;;-4.84;100.00;98567.16;107765;1275;26578;-76
2023/01/30 06:56:11;;;;;;;40.70;18.40;;;;;;;-4.75;100.00;98560.15;107775;1275;26108;-74
2023/01/30 06:58:41;;;;;;;42.00;18.50;;;;;;;-4.65;100.00;98555.77;107590;1275;25428;-75
2023/01/30 07:01:11;;;;;;;46.20;20.30;;;;;;;-4.57;100.00;98560.46;107569;1275;22522;-72
2023/01/30 07:03:39;;;;;;;35.90;17.60;;;;;;;-4.51;100.00;98562.16;107649;1275;23862;-75
2023/01/30 07:22:25;;;;;;;24.40;11.80;;;;;;;-3.73;100.00;98631.52;103649;1301;1003118;-76
2023/01/30 07:24:59;;;;;;;21.00;9.60;;;;;;;-3.49;100.00;98556.61;105185;1288;1003079;-74
2023/01/30 07:27:27;;;;;;;19.70;7.60;;;;;;;-3.29;100.00;98559.86;105270;1281;1003759;-75
2023/01/30 07:29:54;;;;;;;29.00;12.20;;;;;;;-3.08;100.00;98562.94;106046;1288;25403;-74
2023/01/30 07:32:23;;;;;;;28.40;12.90;;;;;;;-2.88;100.00;98567.17;105331;1280;1002968;-74
2023/01/30 07:34:51;;;;;;;19.60;8.90;;;;;;;-2.72;100.00;98578.65;105376;1286;1022120;-74
2023/01/30 07:37:21;;;;;;;21.50;8.10;;;;;;;-2.53;100.00;98587.70;106278;1286;25258;-74
2023/01/30 07:39:48;;;;;;;17.50;7.50;;;;;;;-2.36;100.00;98599.42;106278;1285;22648;-73
2023/01/30 07:42:16;;;;;;;26.10;9.70;;;;;;;-2.15;100.00;98608.25;105556;1285;1003683;-73
2023/01/30 07:44:44;;;;;;;28.10;12.40;;;;;;;-1.91;100.00;98622.57;106252;1287;25317;-74
2023/01/30 07:47:12;;;;;;;34.20;16.40;;;;;;;-1.78;100.00;98654.50;106224;1282;25313;-74
2023/01/30 07:49:39;;;;;;;30.00;13.70;;;;;;;-1.77;100.00;98701.57;105558;1286;1003606;-75
2023/01/30 07:52:06;;;;;;;22.70;12.10;;;;;;;-1.78;100.00;98762.81;106341;1285;25313;-75
2023/01/30 07:54:34;;;;;;;28.80;13.40;;;;;;;-1.74;100.00;98814.65;106246;1286;25438;-76
2023/01/30 07:57:01;;;;;;;37.90;21.40;;;;;;;-1.61;100.00;98855.81;106171;1286;26593;-76
2023/01/30 07:59:30;;;;;;;31.10;14.40;;;;;;;-1.48;100.00;98904.84;106263;1282;25351;-76
2023/01/30 08:02:08;;;;;;;29.90;14.00;;;;;;;-1.38;100.00;98952.96;106567;1287;25313;-74
2023/01/30 08:05:43;;;;;;;32.30;14.80;;;;;;;-1.32;100.00;99011.54;105394;1282;1003399;-74
2023/01/30 08:08:12;;;;;;;35.10;14.40;;;;;;;-1.16;100.00;99082.48;105934;1287;25304;-75
2023/01/30 08:10:41;;;;;;;42.60;17.50;;;;;;;-0.97;100.00;99125.77;107026;1264;25467;-76
2023/01/30 08:13:08;;;;;;;32.00;15.60;;;;;;;-0.85;100.00;99208.52;105518;1279;1003639;-75
2023/01/30 08:15:36;;;;;;;34.50;13.50;;;;;;;-0.73;100.00;99284.38;106245;1279;25331;-75
2023/01/30 08:18:03;;;;;;;27.80;9.10;;;;;;;-0.54;100.00;99336.95;105423;1282;1005146;-75
2023/01/30 08:20:32;;;;;;;17.20;7.80;;;;;;;-0.33;100.00;99397.63;109015;1285;1002907;-75
2023/01/30 08:23:01;;;;;;;20.40;8.80;;;;;;;-0.11;100.00;99432.27;108474;1285;1003108;-75
2023/01/30 08:25:31;;;;;;;64.80;24.80;;;;;;;0.12;100.00;99468.46;106022;1280;25363;-76
2023/01/30 08:27:59;;;;;;;19.40;8.10;;;;;;;0.33;100.00;99502.28;107360;1282;23866;-76
2023/01/30 08:30:27;;;;;;;15.60;6.80;;;;;;;0.49;100.00;99543.23;105312;1285;1002982;-75
2023/01/30 08:32:54;;;;;;;20.60;10.70;;;;;;;0.58;100.00;99579.61;105207;1285;1003345;-74
2023/01/30 08:35:22;;;;;;;20.20;6.90;;;;;;;0.68;100.00;99625.89;106143;1279;24682;-74
2023/01/30 08:37:49;;;;;;;26.10;11.90;;;;;;;0.77;100.00;99669.36;106108;1276;1003414;-72
2023/01/30 08:40:16;;;;;;;24.60;9.60;;;;;;;0.66;100.00;99722.52;107293;1278;25424;-73
2023/01/30 08:42:46;;;;;;;22.00;8.90;;;;;;;0.74;100.00;99747.31;106734;1278;1003220;-73
2023/01/30 08:45:14;;;;;;;65.70;28.50;;;;;;;0.91;100.00;99756.48;106684;1273;25350;-73
2023/01/30 08:47:42;;;;;;;20.90;9.30;;;;;;;1.03;100.00;99770.84;106497;1272;22527;-74
2023/01/30 08:50:12;;;;;;;18.30;7.20;;;;;;;1.19;100.00;99779.08;106796;1273;25303;-74
2023/01/30 08:52:40;;;;;;;24.40;8.50;;;;;;;1.30;100.00;99785.84;106654;1275;26521;-76
2023/01/30 08:55:08;;;;;;;17.30;7.60;;;;;;;1.37;100.00;99800.38;105741;1273;1003397;-73
2023/01/30 08:57:39;;;;;;;16.60;6.50;;;;;;;1.44;100.00;99811.38;106885;1278;1002847;-75
2023/01/30 09:00:08;;;;;;;14.80;6.00;;;;;;;1.59;100.00;99817.89;106540;1278;1002695;-74
2023/01/30 09:02:35;;;;;;;18.90;7.40;;;;;;;1.75;100.00;99812.39;106325;1278;22545;-74
2023/01/30 09:05:07;;;;;;;19.80;8.70;;;;;;;1.80;100.00;99819.15;105709;1278;1003742;-74
2023/01/30 09:07:35;;;;;;;31.10;16.10;;;;;;;1.81;100.00;99827.42;107902;1278;25319;-76
2023/01/30 09:10:03;;;;;;;25.70;15.20;;;;;;;1.76;100.00;99833.33;106696;1273;25304;-73
2023/01/30 09:12:31;;;;;;;20.90;10.10;;;;;;;1.61;100.00;99833.26;106902;1278;25335;-74
2023/01/30 09:14:59;;;;;;;16.40;7.70;;;;;;;1.62;100.00;99839.88;109542;1278;1002690;-75
2023/01/30 09:17:26;;;;;;;17.40;7.40;;;;;;;1.71;100.00;99833.35;107054;1278;1002565;-73
2023/01/30 09:19:53;;;;;;;15.40;7.20;;;;;;;1.87;100.00;99828.85;106633;1278;24368;-74
2023/01/30 09:22:21;;;;;;;16.70;6.90;;;;;;;1.98;100.00;99823.24;106143;1272;1003050;-74
2023/01/30 09:24:58;;;;;;;19.10;9.30;;;;;;;1.97;100.00;99823.98;106440;1279;25265;-73
2023/01/30 09:27:43;;;;;;;24.20;10.50;;;;;;;1.99;100.00;99817.98;106709;1276;25249;-74
2023/01/30 09:30:11;;;;;;;25.10;11.80;;;;;;;1.96;100.00;99810.77;105969;1276;1003790;-74
2023/01/30 09:32:41;;;;;;;21.30;10.30;;;;;;;1.84;100.00;99812.59;106711;1278;23507;-76
2023/01/30 09:35:08;;;;;;;28.60;12.70;;;;;;;1.71;100.00;99803.62;105954;1276;1002882;-75
2023/01/30 09:37:35;;;;;;;43.90;22.40;;;;;;;1.71;100.00;99791.52;106759;1276;25399;-75
2023/01/30 09:40:03;;;;;;;23.40;11.10;;;;;;;1.70;100.00;99785.17;106156;1276;1003745;-76
2023/01/30 09:42:52;;;;;;;22.80;10.60;;;;;;;1.68;100.00;99777.39;106186;1276;1002927;-75
2023/01/30 09:45:34;;;;;;;89.00;53.80;;;;;;;1.49;100.00;99766.64;106878;1276;25448;-74
2023/01/30 09:48:15;;;;;;;25.40;12.00;;;;;;;1.28;100.00;99757.23;106742;1276;26586;-75
2023/01/30 09:50:53;;;;;;;17.70;8.40;;;;;;;1.16;100.00;99749.64;106505;1276;1003261;-76
2023/01/30 09:53:30;;;;;;;17.50;7.70;;;;;;;1.17;100.00;99744.25;106650;1276;25358;-74
2023/01/30 09:56:03;;;;;;;18.20;8.50;;;;;;;1.32;100.00;99740.39;106973;1276;25285;-77
2023/01/30 09:58:54;;;;;;;35.00;14.60;;;;;;;1.36;100.00;99735.86;106533;1276;22529;-75
2023/01/30 10:01:41;;;;;;;19.10;8.20;;;;;;;1.30;100.00;99728.32;106812;1276;22533;-75
2023/01/30 10:04:22;;;;;;;15.90;7.90;;;;;;;1.21;100.00;99717.50;106785;1276;23593;-76
2023/01/30 10:07:05;;;;;;;14.10;6.20;;;;;;;1.13;100.00;99710.61;106743;1276;22531;-75
2023/01/30 10:09:42;;;;;;;;;;;;;;;1.26;100.00;99704.84;106866;1270;22619;-74
2023/01/30 10:12:16;;;;;;;70.90;27.70;;;;;;;1.44;100.00;99697.73;106702;1273;25300;-74
2023/01/30 10:15:08;;;;;;;45.20;21.60;;;;;;;1.54;100.00;99693.75;106717;1273;25433;-75
2023/01/30 10:17:50;;;;;;;29.30;12.30;;;;;;;1.57;100.00;99687.27;106682;1273;24123;-74
2023/01/30 10:20:30;;;;;;;21.70;8.90;;;;;;;1.70;100.00;99679.13;106265;1276;1002980;-75
2023/01/30 10:23:03;;;;;;;23.70;12.00;;;;;;;1.76;100.00;99673.52;106937;1276;25423;-76
2023/01/30 10:25:44;;;;;;;19.70;8.90;;;;;;;1.85;100.00;99669.41;106113;1276;1003584;-74
2023/01/30 10:28:27;;;;;;;16.10;6.80;;;;;;;2.02;100.00;99659.36;109686;1276;1003013;-76
2023/01/30 10:31:23;;;;;;;11.50;5.80;;;;;;;2.06;100.00;99654.86;105903;1276;1002939;-76
2023/01/30 10:33:54;;;;;;;12.60;6.10;;;;;;;1.96;100.00;99642.95;106039;1277;1002440;-76
2023/01/30 10:36:39;;;;;;;13.90;6.40;;;;;;;1.77;100.00;99623.65;106851;1277;24310;-76
2023/01/30 10:39:55;;;;;;;13.70;6.40;;;;;;;1.65;100.00;99607.90;105929;1273;1003060;-75
2023/01/30 10:42:28;;;;;;;13.30;6.40;;;;;;;1.53;100.00;99593.06;106824;1273;25501;-76
2023/01/30 10:45:02;;;;;;;36.70;21.90;;;;;;;1.42;100.00;99586.92;106865;1273;24209;-76
2023/01/30 10:47:34;;;;;;;34.10;20.50;;;;;;;1.50;100.00;99581.79;106060;1276;1015693;-76
2023/01/30 10:50:16;;;;;;;12.80;5.90;;;;;;;1.57;100.00;99583.02;106839;1271;25230;-75
2023/01/30 10:53:12;;;;;;;11.70;5.60;;;;;;;1.50;100.00;99575.23;106887;1273;22691;-75
2023/01/30 10:55:46;;;;;;;13.40;6.30;;;;;;;1.44;100.00;99571.45;105879;1270;1015519;-73
2023/01/30 10:58:22;;;;;;;11.10;5.50;;;;;;;1.44;100.00;99564.02;106783;1276;25488;-75
2023/01/30 11:00:58;;;;;;;22.60;9.90;;;;;;;1.55;100.00;99564.36;107045;1273;24225;-76
2023/01/30 11:04:00;;;;;;;15.60;7.00;;;;;;;1.62;100.00;99559.67;107095;1276;25354;-73
2023/01/30 11:06:31;;;;;;;20.70;9.70;;;;;;;1.55;100.00;99552.83;106759;1271;23899;-74
2023/01/30 11:08:59;;;;;;;14.00;6.10;;;;;;;1.54;100.00;99552.92;106905;1276;25518;-74
2023/01/30 11:11:26;;;;;;;12.40;5.70;;;;;;;1.54;100.00;99554.16;105978;1270;1003006;-73
2023/01/30 11:14:08;;;;;;;13.80;6.00;;;;;;;1.48;100.00;99553.38;106802;1273;25370;-75
2023/01/30 11:16:50;;;;;;;9.90;5.00;;;;;;;1.35;100.00;99546.02;106764;1270;25525;-72
2023/01/30 11:19:23;;;;;;;9.70;4.50;;;;;;;1.27;100.00;99541.54;106768;1269;25383;-72
2023/01/30 11:21:52;;;;;;;8.70;4.90;;;;;;;1.23;100.00;99536.72;106064;1269;1003641;-73
2023/01/30 11:24:22;;;;;;;12.40;5.20;;;;;;;1.18;100.00;99530.21;106903;1269;22509;-73
2023/01/30 11:26:51;;;;;;;12.50;5.60;;;;;;;1.25;100.00;99536.02;106774;1276;22577;-73
2023/01/30 11:29:32;;;;;;;10.30;5.00;;;;;;;1.30;100.00;99532.03;106665;1276;22514;-72
2023/01/30 11:32:05;;;;;;;9.30;4.50;;;;;;;1.38;100.00;99524.36;106576;1276;1002959;-74
2023/01/30 11:34:32;;;;;;;7.70;4.20;;;;;;;1.51;100.00;99522.90;105890;1275;1003289;-74
2023/01/30 11:37:13;;;;;;;22.00;8.60;;;;;;;1.69;100.00;99523.20;106065;1266;1004627;-75
2023/01/30 11:39:50;;;;;;;13.20;5.60;;;;;;;1.79;100.00;99515.30;106774;1269;25313;-73
2023/01/30 11:42:18;;;;;;;15.70;7.10;;;;;;;1.84;100.00;99504.22;106896;1276;25304;-75
2023/01/30 11:44:45;;;;;;;9.50;4.90;;;;;;;1.73;100.00;99501.55;106147;1266;1003339;-75
2023/01/30 11:47:18;;;;;;;15.60;5.80;;;;;;;1.65;100.00;99492.59;106907;1273;26582;-73
2023/01/30 11:49:47;;;;;;;14.10;5.70;;;;;;;1.71;100.00;99490.89;106846;1270;25335;-74
2023/01/30 11:52:36;;;;;;;14.80;6.20;;;;;;;1.76;100.00;99492.79;106003;1275;1002959;-75
2023/01/30 11:55:07;;;;;;;11.00;5.50;;;;;;;1.67;100.00;99497.28;106907;1276;25489;-75